Parker, ID (83438)

11:19 PM MDT on August 28, 2014 (GMT -0600)
Fremont County Courthouse | Change Station
CLOSE
Current Station
Personal Weather Station
Location: St Anthony, ID
Elevation: 4972 ft
Nearby Weather Stations

Elev 4972 ft 43.97 °N, 111.68 °W | Updated 56 seconds ago

Partly Cloudy
Partly Cloudy
63.7 °F
Feels Like 63.7 °F
N
11.0
Wind Variable Wind from ENE
Gusts 15.0 mph

Today
High -- | Low -- °F
--% Chance of Precip.
Yesterday
High -- | Low -- °F
Precip. -- in
6:45 AM 8:09 PM
Waxing Crescent, 12% visible
Pressure 29.95 in
Visibility 10.0 miles
Clouds Scattered Clouds 12000 ft
Dew Point 49 °F
Humidity 55%
Rainfall 0.00 in
Snow Depth Not available.
UV 0 out of 12
Pollen 8.60 out of 12
Air Quality Not available.
Flu Activity Not available.
METAR KRXE 290453Z AUTO 08009KT 10SM SCT120 20/06 A3008 RMK AO2 SLP141 T02000061

More Conditions Fewer Conditions

Pressure 29.95 in
Visibility 10.0 miles
Clouds Scattered Clouds 12000 ft
Dew Point 49 °F
Humidity 55%
Rainfall 0.00 in
Snow Depth Not available.
UV 0 out of 12
Pollen 8.60 out of 12
Air Quality Not available.
Flu Activity Not available.
METAR KRXE 290453Z AUTO 08009KT 10SM SCT120 20/06 A3008 RMK AO2 SLP141 T02000061

More Conditions Fewer Conditions

10-Day Weather Forecast

Almanac

Astronomy

Aug. 28, 2014 Rise Set
Actual Time 6:45 AM MDT 8:09 PM MDT
Civil Twilight 6:15 AM MDT 8:39 PM MDT
Nautical Twilight 5:39 AM MDT 9:15 PM MDT
Astronomical Twilight 5:01 AM MDT 9:54 PM MDT
Moon 9:49 AM MDT (8/28) 9:27 PM MDT (8/28)
Length of Visible Light 14h 23m
Length of Day
13h 23m
Tomorrow will be 2m 52s shorter.
Waxing Crescent, 12% of the Moon is Illuminated
Aug 29
Waxing Crescent
Sep 2
First Quarter
Sep 8
Full
Sep 15
Last Quarter
Sep 24
New

Yesterday's Extremes

State Highs State Lows

Community

WunderPhotos

Upload Photos

1,748,192 photos uploaded!

Nearby

Snow Depth

Station Depth Elevation
Island Park 0 in 6290 ft
Sheep Mountain 0 in 6570 ft
Somsen Ranch 0 in 6800 ft
Hilts Creek 0 in 8000 ft
Wildhorse Divide 0 in 6490 ft

Earthquake Activity

City Distance Mag. Time & Date
No recent earthquake activity has been reported nearby.
Minimum magnitude displayed is 2.5.

Coastal Water Temperatures

Place Temperature
No Stations Reporting

Nearby Weather Stations